Terminal Aerodrome Forecast
Issued by NWS

Home | Current Version | Previous Version | Graphics & Text | Print | Product List | Glossary On
Versions: 1 2 3 4 5 6 7 8 9 10 11 12 13 14 15 16 17 18 19 20 21 22 23 24
000
FTUS43 KABR 291100
TAFMBG
TAF
KMBG 291124Z 2912/3012 VRB03KT 1SM BR OVC003
      TEMPO 2912/2914 3/4SM BR OVC002
     FM291500 VRB03KT P6SM BKN080
     FM291700 35010KT P6SM VCSH BKN050
     FM292100 36010KT P6SM BKN200
     FM292300 03006KT P6SM SKC=

USA.gov is the U.S. government's official web portal to all federal, state and local government web resources and services.